createdAt,value
2019-05-16T00:00:24.089Z,39.67
2019-05-16T00:02:53.629Z,39.00
2019-05-16T00:05:23.523Z,39.90
2019-05-16T00:07:53.604Z,36.97
2019-05-16T00:10:23.560Z,35.67
2019-05-16T00:12:53.101Z,34.07
2019-05-16T00:15:23.048Z,37.50
2019-05-16T00:17:52.623Z,38.17
2019-05-16T00:20:21.780Z,41.23
2019-05-16T00:22:51.414Z,44.33
2019-05-16T00:25:21.611Z,37.13
2019-05-16T00:27:51.475Z,43.53
2019-05-16T00:30:20.652Z,42.50
2019-05-16T00:32:50.003Z,36.87
2019-05-16T00:35:20.296Z,34.97
2019-05-16T00:37:50.128Z,42.83
2019-05-16T00:40:19.996Z,36.77
2019-05-16T00:42:49.528Z,36.60
2019-05-16T00:45:19.450Z,38.23
2019-05-16T00:47:49.070Z,36.67
2019-05-16T00:50:18.639Z,39.67
2019-05-16T00:52:48.904Z,43.37
2019-05-16T00:55:18.579Z,45.70
2019-05-16T00:57:48.795Z,40.57
2019-05-16T01:00:22.200Z,39.40
2019-05-16T01:02:51.714Z,33.47
2019-05-16T01:05:21.225Z,37.67
2019-05-16T01:07:50.857Z,42.63
2019-05-16T01:10:20.037Z,44.73
2019-05-16T01:12:49.278Z,41.87
2019-05-16T01:15:18.966Z,38.57
2019-05-16T01:17:48.812Z,47.93
2019-05-16T01:20:19.259Z,43.17
2019-05-16T01:22:49.197Z,47.63
2019-05-16T01:25:19.516Z,44.13
2019-05-16T01:27:49.290Z,55.37
2019-05-16T01:30:18.894Z,64.00
2019-05-16T01:32:49.270Z,57.53
2019-05-16T01:35:19.010Z,61.13
2019-05-16T01:37:48.897Z,54.60
2019-05-16T01:40:19.135Z,46.83
2019-05-16T01:42:49.296Z,41.93
2019-05-16T01:45:19.070Z,61.70
2019-05-16T01:47:48.802Z,61.87
2019-05-16T01:50:18.335Z,57.10
2019-05-16T01:52:48.886Z,74.27
2019-05-16T01:55:18.842Z,62.90
2019-05-16T01:57:48.395Z,66.33
2019-05-16T02:00:24.985Z,57.90
2019-05-16T02:02:50.158Z,63.30
2019-05-16T02:05:19.389Z,74.60
2019-05-16T02:07:49.192Z,67.57
2019-05-16T02:10:19.237Z,78.77
2019-05-16T02:12:49.130Z,71.60
2019-05-16T02:15:19.148Z,73.93
2019-05-16T02:17:49.379Z,68.07
2019-05-16T02:20:19.287Z,75.67
2019-05-16T02:22:50.078Z,50.83
2019-05-16T02:25:21.488Z,77.77
2019-05-16T02:27:51.069Z,65.20
2019-05-16T02:30:22.496Z,57.60
2019-05-16T02:32:52.523Z,54.23
2019-05-16T02:35:41.426Z,56.03
2019-05-16T02:38:12.566Z,60.40
2019-05-16T02:40:42.060Z,52.83
2019-05-16T02:43:12.558Z,50.17
2019-05-16T02:45:43.931Z,51.13
2019-05-16T02:48:13.175Z,55.00
2019-05-16T02:50:43.042Z,49.03
2019-05-16T02:53:12.967Z,59.07
2019-05-16T02:55:43.552Z,59.30
2019-05-16T02:58:13.216Z,69.87
2019-05-16T03:00:43.113Z,78.53
2019-05-16T03:03:12.533Z,61.17
2019-05-16T03:05:42.736Z,60.70
2019-05-16T03:08:12.406Z,61.33
2019-05-16T03:11:01.763Z,60.33
2019-05-16T03:13:32.189Z,73.53
2019-05-16T03:16:02.459Z,59.57
2019-05-16T03:18:33.959Z,59.47
2019-05-16T03:21:03.476Z,64.87
2019-05-16T03:23:33.446Z,65.17
2019-05-16T03:26:22.199Z,58.53
2019-05-16T03:28:52.371Z,72.93
2019-05-16T03:31:24.348Z,70.50
2019-05-16T03:33:59.134Z,66.30
2019-05-16T03:36:26.300Z,58.70
2019-05-16T03:38:55.898Z,70.57
2019-05-16T03:41:25.838Z,63.33
2019-05-16T03:43:55.659Z,59.63
2019-05-16T03:46:25.176Z,64.97
2019-05-16T03:48:55.166Z,67.23
2019-05-16T03:51:24.720Z,76.27
2019-05-16T03:53:54.048Z,72.63
2019-05-16T03:56:23.986Z,81.43
2019-05-16T03:58:54.047Z,93.62
2019-05-16T04:01:23.631Z,83.23
2019-05-16T04:03:53.296Z,84.30
2019-05-16T04:06:23.236Z,78.63
2019-05-16T04:08:53.034Z,76.80
2019-05-16T04:11:23.726Z,116.97
2019-05-16T04:13:53.532Z,121.53
2019-05-16T04:16:23.135Z,67.00
2019-05-16T04:18:52.714Z,131.30
2019-05-16T04:21:22.371Z,117.07
2019-05-16T04:23:52.304Z,101.60
2019-05-16T04:26:21.963Z,136.63
2019-05-16T04:28:51.756Z,128.07
2019-05-16T04:31:22.250Z,107.53
2019-05-16T04:33:52.093Z,170.33
2019-05-16T04:36:21.566Z,181.63
2019-05-16T04:38:51.475Z,124.17
2019-05-16T04:41:21.611Z,61.93
2019-05-16T04:43:51.306Z,66.77
2019-05-16T04:46:21.544Z,75.13
2019-05-16T04:48:51.587Z,88.13
2019-05-16T04:51:22.015Z,85.17
2019-05-16T04:53:51.785Z,117.00
2019-05-16T04:56:22.025Z,82.07
2019-05-16T04:58:51.832Z,72.93
2019-05-16T05:01:22.607Z,63.87
2019-05-16T05:04:06.592Z,74.47
2019-05-16T05:06:23.853Z,57.10
2019-05-16T05:08:58.640Z,63.53
2019-05-16T05:11:25.440Z,75.23
2019-05-16T05:13:54.629Z,67.20
2019-05-16T05:16:24.521Z,63.83
2019-05-16T05:18:54.400Z,82.97
2019-05-16T05:21:23.609Z,69.93
2019-05-16T05:23:53.497Z,74.90
2019-05-16T05:26:22.783Z,70.83
2019-05-16T05:28:52.723Z,67.57
2019-05-16T05:31:25.019Z,69.73
2019-05-16T05:33:54.398Z,68.70
2019-05-16T05:36:24.330Z,61.13
2019-05-16T05:39:07.875Z,63.90
2019-05-16T05:41:25.118Z,47.37
2019-05-16T05:43:54.761Z,48.00
2019-05-16T05:46:24.750Z,50.47
2019-05-16T05:48:54.016Z,62.20
2019-05-16T05:51:23.953Z,56.10
2019-05-16T05:53:53.538Z,62.53
2019-05-16T05:56:23.865Z,63.90
2019-05-16T05:58:53.105Z,65.93
2019-05-16T06:01:22.389Z,64.97
2019-05-16T06:03:51.932Z,60.57
2019-05-16T06:06:21.482Z,63.17
2019-05-16T06:08:51.301Z,62.17
2019-05-16T06:11:21.236Z,52.30
2019-05-16T06:13:51.244Z,61.83
2019-05-16T06:16:20.832Z,55.30
2019-05-16T06:18:50.769Z,50.33
2019-05-16T06:21:20.727Z,59.37
2019-05-16T06:23:50.850Z,54.97
2019-05-16T06:26:21.141Z,56.70
2019-05-16T06:28:50.736Z,60.63
2019-05-16T06:31:22.071Z,59.57
2019-05-16T06:33:51.941Z,58.77
2019-05-16T06:36:21.940Z,55.60
2019-05-16T06:38:51.510Z,58.13
2019-05-16T06:41:20.678Z,54.60
2019-05-16T06:43:50.771Z,55.63
2019-05-16T06:46:20.894Z,59.60
2019-05-16T06:48:51.365Z,65.10
2019-05-16T06:51:20.903Z,57.27
2019-05-16T06:53:50.549Z,60.13
2019-05-16T06:56:20.562Z,56.87
2019-05-16T06:58:52.043Z,62.77
2019-05-16T07:01:21.450Z,61.00
2019-05-16T07:03:51.050Z,56.50
2019-05-16T07:06:45.564Z,47.90
2019-05-16T07:08:54.241Z,54.20
2019-05-16T07:11:23.485Z,47.43
2019-05-16T07:13:53.144Z,49.10
2019-05-16T07:16:22.434Z,52.40
2019-05-16T07:18:52.084Z,42.63
2019-05-16T07:21:22.432Z,42.67
2019-05-16T07:23:52.298Z,34.50
2019-05-16T07:26:21.466Z,32.83
2019-05-16T07:28:51.700Z,35.90
2019-05-16T07:31:22.643Z,28.47
2019-05-16T07:33:52.407Z,31.40
2019-05-16T07:36:22.749Z,27.80
2019-05-16T07:38:52.332Z,25.13
2019-05-16T07:41:22.276Z,27.87
2019-05-16T07:43:51.835Z,25.93
2019-05-16T07:46:21.429Z,27.27
2019-05-16T07:48:52.120Z,27.23
2019-05-16T07:51:22.156Z,29.60
2019-05-16T07:53:51.447Z,27.70
2019-05-16T07:56:21.430Z,29.30
2019-05-16T07:58:51.026Z,25.13
2019-05-16T08:01:20.945Z,22.17
2019-05-16T08:03:51.187Z,26.17
2019-05-16T08:06:21.229Z,22.53
2019-05-16T08:08:51.208Z,20.33
2019-05-16T08:11:23.608Z,23.93
2019-05-16T08:13:52.032Z,27.67
2019-05-16T08:16:21.335Z,21.80
2019-05-16T08:18:51.176Z,23.70
2019-05-16T08:21:21.070Z,24.37
2019-05-16T08:23:51.207Z,23.13
2019-05-16T08:28:52.588Z,19.67
2019-05-16T08:31:22.214Z,27.93
2019-05-16T08:33:54.799Z,28.63
2019-05-16T08:36:23.322Z,28.33
2019-05-16T08:38:52.929Z,24.27
2019-05-16T08:41:22.596Z,24.10
2019-05-16T08:43:53.247Z,23.77
2019-05-16T08:46:23.198Z,23.63
2019-05-16T08:48:54.241Z,22.30
2019-05-16T08:51:24.289Z,24.57
2019-05-16T08:53:53.540Z,26.10
2019-05-16T08:56:23.858Z,29.97
2019-05-16T08:58:54.200Z,27.40
2019-05-16T09:01:24.212Z,22.50
2019-05-16T09:03:53.840Z,20.80
2019-05-16T09:06:23.417Z,21.13
2019-05-16T09:08:53.088Z,20.73
2019-05-16T09:10:20.787Z,24.70
2019-05-16T09:11:35.033Z,25.43
2019-05-16T09:13:53.512Z,20.70
2019-05-16T09:16:24.047Z,21.97
2019-05-16T09:18:57.287Z,20.10
2019-05-16T09:21:27.534Z,20.57
2019-05-16T09:23:57.808Z,21.37
2019-05-16T09:26:27.932Z,19.47
2019-05-16T09:28:58.566Z,22.23
2019-05-16T09:31:28.163Z,20.87
2019-05-16T09:33:58.146Z,18.40
2019-05-16T09:36:28.163Z,19.37
2019-05-16T09:38:58.024Z,19.00
2019-05-16T09:41:46.178Z,19.47
2019-05-16T09:43:59.537Z,22.77
2019-05-16T09:46:29.279Z,25.10
2019-05-16T09:49:15.672Z,22.17
2019-05-16T09:51:30.432Z,21.97
2019-05-16T09:53:59.693Z,21.10
2019-05-16T09:56:29.728Z,20.77
2019-05-16T09:58:58.972Z,20.87
2019-05-16T10:01:40.430Z,22.53
2019-05-16T10:04:10.386Z,22.10
2019-05-16T10:06:40.530Z,20.37
2019-05-16T10:09:10.121Z,20.53
2019-05-16T10:11:42.125Z,21.43
2019-05-16T10:14:13.129Z,23.13
2019-05-16T10:16:42.413Z,17.20
2019-05-16T10:19:12.329Z,18.80
2019-05-16T10:21:42.506Z,19.97
2019-05-16T10:24:12.494Z,18.73
2019-05-16T10:26:42.419Z,19.17
2019-05-16T10:29:11.953Z,21.97
2019-05-16T10:31:49.323Z,23.80
2019-05-16T10:34:13.783Z,21.23
2019-05-16T10:36:43.402Z,19.53
2019-05-16T10:39:13.053Z,20.53
2019-05-16T10:41:42.733Z,20.03
2019-05-16T10:44:13.602Z,18.47
2019-05-16T10:46:43.644Z,18.17
2019-05-16T10:49:13.244Z,21.07
2019-05-16T10:51:42.846Z,17.30
2019-05-16T10:54:14.365Z,19.83
2019-05-16T10:56:46.729Z,20.47
2019-05-16T10:59:51.092Z,18.60
2019-05-16T11:01:48.931Z,19.27
2019-05-16T11:04:29.504Z,20.13
2019-05-16T11:06:50.614Z,18.87
2019-05-16T11:09:20.243Z,17.37
2019-05-16T11:11:50.065Z,20.90
2019-05-16T11:14:20.255Z,16.63
2019-05-16T11:16:49.528Z,15.20
2019-05-16T11:19:24.214Z,14.43
2019-05-16T11:21:50.658Z,16.13
2019-05-16T11:24:20.189Z,18.17
2019-05-16T11:26:50.798Z,15.40
2019-05-16T11:29:21.001Z,17.33
2019-05-16T11:31:50.720Z,16.20
2019-05-16T11:34:20.000Z,19.47
2019-05-16T11:36:50.092Z,21.70
2019-05-16T11:39:19.995Z,22.10
2019-05-16T11:41:51.016Z,23.00
2019-05-16T11:44:20.608Z,24.00
2019-05-16T11:46:50.784Z,23.50
2019-05-16T11:49:22.000Z,21.67
2019-05-16T11:51:51.503Z,20.13
2019-05-16T11:54:21.514Z,18.23
2019-05-16T11:56:51.794Z,17.37
2019-05-16T11:59:21.689Z,19.00
2019-05-16T12:01:51.844Z,18.70
2019-05-16T12:04:21.460Z,19.13
2019-05-16T12:06:51.068Z,18.33
2019-05-16T12:09:21.173Z,21.13
2019-05-16T12:12:02.708Z,21.00
2019-05-16T12:14:22.229Z,21.73
2019-05-16T12:16:51.973Z,23.10
2019-05-16T12:19:21.335Z,22.73
2019-05-16T12:21:51.074Z,23.07
2019-05-16T12:24:32.324Z,24.57
2019-05-16T12:26:51.752Z,23.53
2019-05-16T12:29:21.371Z,23.33
2019-05-16T12:31:57.644Z,22.50
2019-05-16T12:34:23.069Z,21.40
2019-05-16T12:36:52.977Z,20.83
2019-05-16T12:39:23.058Z,21.77
2019-05-16T12:41:53.594Z,22.67
2019-05-16T12:44:23.120Z,21.43
2019-05-16T12:46:52.877Z,22.13
2019-05-16T12:49:22.497Z,22.53
2019-05-16T12:51:52.852Z,23.43
2019-05-16T12:54:23.338Z,31.10
2019-05-16T12:56:53.105Z,22.27
2019-05-16T12:59:22.322Z,24.27
2019-05-16T13:01:51.696Z,25.33
2019-05-16T13:04:21.871Z,22.27
2019-05-16T13:06:52.217Z,20.80
2019-05-16T13:09:21.878Z,20.40
2019-05-16T13:11:51.593Z,21.60
2019-05-16T13:14:21.644Z,22.80
2019-05-16T13:16:51.281Z,22.53
2019-05-16T13:19:20.809Z,23.23
2019-05-16T13:21:50.861Z,20.37
2019-05-16T13:24:20.848Z,26.70
2019-05-16T13:26:50.459Z,25.70
2019-05-16T13:29:20.308Z,31.27
2019-05-16T13:31:50.286Z,32.70
2019-05-16T13:34:19.871Z,27.17
2019-05-16T13:36:49.520Z,28.20
2019-05-16T13:39:19.140Z,23.80
2019-05-16T13:41:49.803Z,24.90
2019-05-16T13:44:22.984Z,26.43
2019-05-16T13:46:50.230Z,27.03
2019-05-16T13:49:19.841Z,24.67
2019-05-16T13:51:50.283Z,28.73
2019-05-16T13:54:22.840Z,28.83
2019-05-16T13:56:52.889Z,32.30
2019-05-16T13:59:22.167Z,30.57
2019-05-16T14:01:51.565Z,29.13
2019-05-16T14:04:21.758Z,30.37
2019-05-16T14:06:51.059Z,31.70
2019-05-16T14:09:20.411Z,30.17
2019-05-16T14:11:50.420Z,30.70
2019-05-16T14:14:33.658Z,29.70
2019-05-16T14:16:51.348Z,30.23
2019-05-16T14:19:21.051Z,32.97
2019-05-16T14:21:51.062Z,35.40
2019-05-16T14:24:20.411Z,33.13
2019-05-16T14:26:49.754Z,39.53
2019-05-16T14:29:19.219Z,38.57
2019-05-16T14:31:48.877Z,36.80
2019-05-16T14:34:18.901Z,38.47
2019-05-16T14:36:48.857Z,34.00
2019-05-16T14:39:19.984Z,36.47
2019-05-16T14:41:49.725Z,30.43
2019-05-16T14:44:19.761Z,28.93
2019-05-16T14:46:49.933Z,35.37
2019-05-16T14:49:19.900Z,31.33
2019-05-16T14:51:49.715Z,29.97
2019-05-16T14:54:18.946Z,35.73
2019-05-16T14:56:48.608Z,30.17
2019-05-16T14:59:18.374Z,26.97
2019-05-16T15:01:48.005Z,27.60
2019-05-16T15:04:17.693Z,30.60
2019-05-16T15:06:47.719Z,32.40
2019-05-16T15:09:18.156Z,32.33
2019-05-16T15:11:49.184Z,28.43
2019-05-16T15:14:19.570Z,33.20
2019-05-16T15:16:51.879Z,28.53
2019-05-16T15:19:20.679Z,32.20
2019-05-16T15:21:50.782Z,31.73
2019-05-16T15:24:20.933Z,25.93
2019-05-16T15:26:50.383Z,28.87
2019-05-16T15:29:20.657Z,26.00
2019-05-16T15:31:50.395Z,29.77
2019-05-16T15:34:20.557Z,25.60
2019-05-16T15:36:50.323Z,24.63
2019-05-16T15:39:20.455Z,25.27
2019-05-16T15:41:49.690Z,28.07
2019-05-16T15:44:18.997Z,22.73
2019-05-16T15:46:48.903Z,22.80
2019-05-16T15:49:18.310Z,23.03
2019-05-16T15:51:48.785Z,24.77
2019-05-16T15:54:20.953Z,25.20
2019-05-16T15:56:50.627Z,23.57
2019-05-16T15:59:20.627Z,25.20
2019-05-16T16:01:51.177Z,25.60
2019-05-16T16:04:21.283Z,23.53
2019-05-16T16:06:51.038Z,24.87
2019-05-16T16:09:20.636Z,22.93
2019-05-16T16:11:50.254Z,23.60
2019-05-16T16:14:20.589Z,26.40
2019-05-16T16:16:50.071Z,22.60
2019-05-16T16:19:19.821Z,24.53
2019-05-16T16:21:49.608Z,22.13
2019-05-16T16:24:19.365Z,24.17
2019-05-16T16:26:49.596Z,26.60
2019-05-16T16:29:19.275Z,24.20
2019-05-16T16:31:49.703Z,22.23
2019-05-16T16:34:19.337Z,24.93
2019-05-16T16:36:48.693Z,24.63
2019-05-16T16:39:17.955Z,22.57
2019-05-16T16:41:48.009Z,22.80
2019-05-16T16:44:18.097Z,25.27
2019-05-16T16:46:48.311Z,22.37
2019-05-16T16:49:18.410Z,22.97
2019-05-16T16:51:48.768Z,22.07
2019-05-16T16:54:18.871Z,24.53
2019-05-16T16:56:48.148Z,21.70
2019-05-16T16:59:17.809Z,21.13
2019-05-16T17:01:48.460Z,23.73
2019-05-16T17:04:18.178Z,23.97
2019-05-16T17:06:47.978Z,24.70
2019-05-16T17:09:18.307Z,29.77
2019-05-16T17:11:47.601Z,28.00
2019-05-16T17:14:17.495Z,30.03
2019-05-16T17:16:47.585Z,26.03
2019-05-16T17:19:17.208Z,24.53
2019-05-16T17:22:01.713Z,25.43
2019-05-16T17:24:18.141Z,22.17
2019-05-16T17:26:48.015Z,26.57
2019-05-16T17:29:17.504Z,24.90
2019-05-16T17:31:53.957Z,24.67
2019-05-16T17:34:18.197Z,26.23
2019-05-16T17:36:48.135Z,25.10
2019-05-16T17:39:18.375Z,30.87
2019-05-16T17:41:54.617Z,27.30
2019-05-16T17:44:19.927Z,28.40
2019-05-16T17:46:52.526Z,28.73
2019-05-16T17:49:21.775Z,26.17
2019-05-16T17:51:51.108Z,29.27
2019-05-16T17:54:21.093Z,30.80
2019-05-16T17:56:50.462Z,29.47
2019-05-16T17:59:20.184Z,36.20
2019-05-16T18:01:50.992Z,37.17
2019-05-16T18:04:20.549Z,38.40
2019-05-16T18:06:50.591Z,43.53
2019-05-16T18:09:19.948Z,42.03
2019-05-16T18:11:49.926Z,45.13
2019-05-16T18:14:19.240Z,40.93
2019-05-16T18:16:58.416Z,39.07
2019-05-16T18:19:20.512Z,37.03
2019-05-16T18:21:50.452Z,37.40
2019-05-16T18:24:20.778Z,33.33
2019-05-16T18:26:50.690Z,32.07
2019-05-16T18:29:20.013Z,37.63
2019-05-16T18:31:50.113Z,31.93
2019-05-16T18:34:19.722Z,34.97
2019-05-16T18:36:49.729Z,31.57
2019-05-16T18:39:19.457Z,32.43
2019-05-16T18:41:49.078Z,30.13
2019-05-16T18:44:18.735Z,28.73
2019-05-16T18:46:49.372Z,30.27
2019-05-16T18:49:19.982Z,30.20
2019-05-16T18:51:49.644Z,27.97
2019-05-16T18:54:18.936Z,31.03
2019-05-16T18:56:48.643Z,30.27
2019-05-16T18:59:18.362Z,34.33
2019-05-16T19:01:48.051Z,37.10
2019-05-16T19:04:17.939Z,39.30
2019-05-16T19:06:47.402Z,37.37
2019-05-16T19:09:16.859Z,41.27
2019-05-16T19:11:46.459Z,40.87
2019-05-16T19:14:16.880Z,38.10
2019-05-16T19:16:48.943Z,39.17
2019-05-16T19:19:18.221Z,41.27
2019-05-16T19:21:49.103Z,43.57
2019-05-16T19:24:18.970Z,45.47
2019-05-16T19:26:48.980Z,44.37
2019-05-16T19:29:19.397Z,43.33
2019-05-16T19:31:50.557Z,42.37
2019-05-16T19:34:20.421Z,38.10
2019-05-16T19:36:50.153Z,42.00
2019-05-16T19:39:19.608Z,44.40
2019-05-16T19:41:48.921Z,41.90
2019-05-16T19:44:18.823Z,38.63
2019-05-16T19:46:48.689Z,39.17
2019-05-16T19:49:18.500Z,38.13
2019-05-16T19:51:49.088Z,35.53
2019-05-16T19:54:18.798Z,37.93
2019-05-16T19:56:48.741Z,41.77
2019-05-16T19:59:18.097Z,39.60
2019-05-16T20:01:47.741Z,38.00
2019-05-16T20:04:18.415Z,38.30
2019-05-16T20:06:48.153Z,38.27
2019-05-16T20:09:18.502Z,41.50
2019-05-16T20:11:47.924Z,45.27
2019-05-16T20:14:19.715Z,40.77
2019-05-16T20:16:48.710Z,43.63
2019-05-16T20:19:19.439Z,42.73
2019-05-16T20:21:49.091Z,42.93
2019-05-16T20:24:19.101Z,40.70
2019-05-16T20:26:48.854Z,45.27
2019-05-16T20:29:18.530Z,38.20
2019-05-16T20:31:47.916Z,36.13
2019-05-16T20:34:17.761Z,40.40
2019-05-16T20:36:47.620Z,42.27
2019-05-16T20:39:17.759Z,41.87
2019-05-16T20:41:47.669Z,41.67
2019-05-16T20:44:17.391Z,40.57
2019-05-16T20:46:49.694Z,40.13
2019-05-16T20:49:18.927Z,42.30
2019-05-16T20:51:50.095Z,40.57
2019-05-16T20:54:19.613Z,40.40
2019-05-16T20:56:49.710Z,40.40
2019-05-16T20:59:19.889Z,40.60
2019-05-16T21:01:49.560Z,42.67
2019-05-16T21:04:19.368Z,42.37
2019-05-16T21:07:00.255Z,41.37
2019-05-16T21:09:20.625Z,38.40
2019-05-16T21:11:50.518Z,42.17
2019-05-16T21:14:20.884Z,39.77
2019-05-16T21:16:51.313Z,42.07
2019-05-16T21:19:21.351Z,43.87
2019-05-16T21:21:51.296Z,39.73
2019-05-16T21:24:22.278Z,39.83
2019-05-16T21:26:52.015Z,42.30
2019-05-16T21:29:21.421Z,40.30
2019-05-16T21:31:51.126Z,40.03
2019-05-16T21:34:21.030Z,42.33
2019-05-16T21:36:51.162Z,41.83
2019-05-16T21:39:21.360Z,43.70
2019-05-16T21:41:51.193Z,38.10
2019-05-16T21:44:20.464Z,43.50
2019-05-16T21:46:53.349Z,42.27
2019-05-16T21:49:21.927Z,40.13
2019-05-16T21:51:52.549Z,41.30
2019-05-16T21:54:22.187Z,39.57
2019-05-16T21:56:51.406Z,44.63
2019-05-16T21:59:21.459Z,42.97
2019-05-16T22:01:50.829Z,36.97
2019-05-16T22:04:20.128Z,42.40
2019-05-16T22:06:50.133Z,40.50
2019-05-16T22:09:19.430Z,41.90
2019-05-16T22:11:50.508Z,41.07
2019-05-16T22:14:21.918Z,42.07
2019-05-16T22:16:51.517Z,39.07
2019-05-16T22:19:21.472Z,38.27
2019-05-16T22:21:51.424Z,40.63
2019-05-16T22:24:21.495Z,38.97
2019-05-16T22:26:51.460Z,38.23
2019-05-16T22:29:21.377Z,41.10
2019-05-16T22:31:50.985Z,42.07
2019-05-16T22:34:20.600Z,42.27
2019-05-16T22:36:50.170Z,42.73
2019-05-16T22:39:19.369Z,40.30
2019-05-16T22:41:49.049Z,41.90
2019-05-16T22:44:19.108Z,42.63
2019-05-16T22:46:48.405Z,42.73
2019-05-16T22:49:18.451Z,41.37
2019-05-16T22:51:47.751Z,43.13
2019-05-16T22:54:17.480Z,40.80
2019-05-16T22:56:46.778Z,42.70
2019-05-16T22:59:17.159Z,43.17
2019-05-16T23:01:46.740Z,44.73
2019-05-16T23:04:16.876Z,41.97
2019-05-16T23:06:46.577Z,39.47
2019-05-16T23:09:16.462Z,42.27
2019-05-16T23:11:46.215Z,42.37
2019-05-16T23:14:17.048Z,43.50
2019-05-16T23:16:46.848Z,41.97
2019-05-16T23:19:17.128Z,45.47
2019-05-16T23:21:47.472Z,45.40
2019-05-16T23:24:17.453Z,43.43
2019-05-16T23:26:47.034Z,48.47
2019-05-16T23:29:17.177Z,45.20
2019-05-16T23:31:47.490Z,44.50
2019-05-16T23:34:18.805Z,43.63
2019-05-16T23:36:48.653Z,42.63
2019-05-16T23:39:17.912Z,45.40
2019-05-16T23:41:47.909Z,45.73
2019-05-16T23:44:17.180Z,46.27
2019-05-16T23:46:47.180Z,48.20
2019-05-16T23:49:16.853Z,45.37
2019-05-16T23:51:47.291Z,43.37
2019-05-16T23:54:17.645Z,45.30
2019-05-16T23:56:47.297Z,40.73
2019-05-16T23:59:17.315Z,42.50
